sensor_id;sensor_type;location;lat;lon;timestamp;pressure;altitude;pressure_sealevel;temperature;humidity
12349;BME280;5974;42.710;27.258;2023-05-14T00:01:35;100866.63;;;7.93;100.00
12349;BME280;5974;42.710;27.258;2023-05-14T00:04:01;100875.97;;;6.96;100.00
12349;BME280;5974;42.710;27.258;2023-05-14T00:06:28;100882.41;;;6.67;100.00
12349;BME280;5974;42.710;27.258;2023-05-14T00:08:56;100894.22;;;6.20;100.00
12349;BME280;5974;42.710;27.258;2023-05-14T00:11:23;100895.69;;;6.42;100.00
12349;BME280;5974;42.710;27.258;2023-05-14T00:13:50;100903.03;;;6.80;100.00
12349;BME280;5974;42.710;27.258;2023-05-14T00:16:17;100900.19;;;6.98;100.00
12349;BME280;5974;42.710;27.258;2023-05-14T00:18:45;100904.94;;;7.30;100.00
12349;BME280;5974;42.710;27.258;2023-05-14T00:21:12;100897.88;;;7.40;100.00
12349;BME280;5974;42.710;27.258;2023-05-14T00:23:39;100896.31;;;7.28;100.00
12349;BME280;5974;42.710;27.258;2023-05-14T00:26:06;100913.59;;;6.67;100.00
12349;BME280;5974;42.710;27.258;2023-05-14T00:28:33;100923.03;;;5.93;100.00
12349;BME280;5974;42.710;27.258;2023-05-14T00:30:59;100914.19;;;6.11;100.00
12349;BME280;5974;42.710;27.258;2023-05-14T00:33:26;100926.47;;;6.74;100.00
12349;BME280;5974;42.710;27.258;2023-05-14T00:35:55;100876.63;;;6.45;100.00
12349;BME280;5974;42.710;27.258;2023-05-14T00:38:21;100916.59;;;7.03;100.00
12349;BME280;5974;42.710;27.258;2023-05-14T00:40:52;100920.19;;;6.95;100.00
12349;BME280;5974;42.710;27.258;2023-05-14T00:43:19;100915.63;;;7.11;100.00
12349;BME280;5974;42.710;27.258;2023-05-14T00:45:49;100917.66;;;7.48;100.00
12349;BME280;5974;42.710;27.258;2023-05-14T00:48:16;100920.97;;;6.98;100.00
12349;BME280;5974;42.710;27.258;2023-05-14T00:50:43;100912.91;;;7.18;100.00
12349;BME280;5974;42.710;27.258;2023-05-14T00:53:12;100921.41;;;7.31;100.00
12349;BME280;5974;42.710;27.258;2023-05-14T00:55:40;100906.72;;;7.27;100.00
12349;BME280;5974;42.710;27.258;2023-05-14T00:58:09;100890.38;;;7.19;100.00
12349;BME280;5974;42.710;27.258;2023-05-14T01:00:37;100901.31;;;7.40;100.00
12349;BME280;5974;42.710;27.258;2023-05-14T01:03:04;100897.03;;;7.38;100.00
12349;BME280;5974;42.710;27.258;2023-05-14T01:05:38;100884.94;;;7.34;100.00
12349;BME280;5974;42.710;27.258;2023-05-14T01:08:15;100894.09;;;6.99;100.00
12349;BME280;5974;42.710;27.258;2023-05-14T01:10:48;100896.66;;;7.04;100.00
12349;BME280;5974;42.710;27.258;2023-05-14T01:13:23;100891.16;;;6.61;100.00
12349;BME280;5974;42.710;27.258;2023-05-14T01:15:55;100887.94;;;6.38;100.00
12349;BME280;5974;42.710;27.258;2023-05-14T01:18:22;100897.63;;;6.95;100.00
12349;BME280;5974;42.710;27.258;2023-05-14T01:20:50;100891.59;;;6.95;100.00
12349;BME280;5974;42.710;27.258;2023-05-14T01:23:19;100874.22;;;6.95;100.00
12349;BME280;5974;42.710;27.258;2023-05-14T01:25:46;100883.63;;;7.07;100.00
12349;BME280;5974;42.710;27.258;2023-05-14T01:28:16;100881.75;;;7.17;100.00
12349;BME280;5974;42.710;27.258;2023-05-14T01:30:48;100872.31;;;7.09;100.00
12349;BME280;5974;42.710;27.258;2023-05-14T01:33:18;100872.44;;;7.00;100.00
12349;BME280;5974;42.710;27.258;2023-05-14T01:35:45;100864.50;;;7.09;100.00
12349;BME280;5974;42.710;27.258;2023-05-14T01:38:14;100866.38;;;6.98;100.00
12349;BME280;5974;42.710;27.258;2023-05-14T01:40:45;100866.50;;;6.89;100.00
12349;BME280;5974;42.710;27.258;2023-05-14T01:43:14;100864.22;;;6.67;100.00
12349;BME280;5974;42.710;27.258;2023-05-14T01:45:41;100869.22;;;6.80;100.00
12349;BME280;5974;42.710;27.258;2023-05-14T01:48:08;100864.88;;;6.84;100.00
12349;BME280;5974;42.710;27.258;2023-05-14T01:50:35;100872.53;;;6.93;100.00
12349;BME280;5974;42.710;27.258;2023-05-14T01:53:01;100875.75;;;7.12;100.00
12349;BME280;5974;42.710;27.258;2023-05-14T01:55:28;100864.31;;;7.22;100.00
12349;BME280;5974;42.710;27.258;2023-05-14T01:57:56;100864.38;;;7.17;100.00
12349;BME280;5974;42.710;27.258;2023-05-14T02:00:24;100858.25;;;7.23;100.00
12349;BME280;5974;42.710;27.258;2023-05-14T02:02:51;100834.41;;;6.95;100.00
12349;BME280;5974;42.710;27.258;2023-05-14T02:05:18;100854.88;;;7.16;100.00
12349;BME280;5974;42.710;27.258;2023-05-14T02:07:45;100851.56;;;7.05;100.00
12349;BME280;5974;42.710;27.258;2023-05-14T02:10:12;100855.16;;;6.98;100.00
12349;BME280;5974;42.710;27.258;2023-05-14T02:12:39;100856.91;;;6.96;100.00
12349;BME280;5974;42.710;27.258;2023-05-14T02:15:08;100851.69;;;6.97;100.00
12349;BME280;5974;42.710;27.258;2023-05-14T02:17:36;100848.28;;;6.92;100.00
12349;BME280;5974;42.710;27.258;2023-05-14T02:20:03;100857.88;;;6.89;100.00
12349;BME280;5974;42.710;27.258;2023-05-14T02:22:30;100856.16;;;6.86;100.00
12349;BME280;5974;42.710;27.258;2023-05-14T02:24:57;100867.78;;;6.60;100.00
12349;BME280;5974;42.710;27.258;2023-05-14T02:27:24;100858.22;;;6.63;100.00
12349;BME280;5974;42.710;27.258;2023-05-14T02:29:51;100857.19;;;6.76;100.00
12349;BME280;5974;42.710;27.258;2023-05-14T02:32:19;100856.53;;;6.59;100.00
12349;BME280;5974;42.710;27.258;2023-05-14T02:34:46;100861.94;;;5.48;100.00
12349;BME280;5974;42.710;27.258;2023-05-14T02:37:13;100863.72;;;5.46;100.00
12349;BME280;5974;42.710;27.258;2023-05-14T02:39:40;100865.78;;;6.07;100.00
12349;BME280;5974;42.710;27.258;2023-05-14T02:42:07;100858.59;;;6.31;100.00
12349;BME280;5974;42.710;27.258;2023-05-14T02:44:34;100861.97;;;6.39;100.00
12349;BME280;5974;42.710;27.258;2023-05-14T02:47:00;100863.59;;;6.46;100.00
12349;BME280;5974;42.710;27.258;2023-05-14T02:49:29;100868.75;;;6.51;100.00
12349;BME280;5974;42.710;27.258;2023-05-14T02:51:56;100862.59;;;6.60;100.00
12349;BME280;5974;42.710;27.258;2023-05-14T02:54:25;100856.47;;;6.62;100.00
12349;BME280;5974;42.710;27.258;2023-05-14T02:56:52;100860.72;;;6.69;100.00
12349;BME280;5974;42.710;27.258;2023-05-14T02:59:19;100863.38;;;6.65;100.00
12349;BME280;5974;42.710;27.258;2023-05-14T03:01:46;100861.47;;;6.77;100.00
12349;BME280;5974;42.710;27.258;2023-05-14T03:04:12;100873.56;;;6.81;100.00
12349;BME280;5974;42.710;27.258;2023-05-14T03:06:41;100824.53;;;6.57;100.00
12349;BME280;5974;42.710;27.258;2023-05-14T03:09:08;100888.34;;;6.78;100.00
12349;BME280;5974;42.710;27.258;2023-05-14T03:11:35;100889.06;;;6.14;100.00
12349;BME280;5974;42.710;27.258;2023-05-14T03:14:02;100894.59;;;6.62;100.00
12349;BME280;5974;42.710;27.258;2023-05-14T03:16:28;100887.06;;;7.07;100.00
12349;BME280;5974;42.710;27.258;2023-05-14T03:18:55;100886.94;;;7.17;100.00
12349;BME280;5974;42.710;27.258;2023-05-14T03:21:22;100881.72;;;7.18;100.00
12349;BME280;5974;42.710;27.258;2023-05-14T03:23:51;100889.00;;;7.51;100.00
12349;BME280;5974;42.710;27.258;2023-05-14T03:26:18;100894.81;;;7.67;100.00
12349;BME280;5974;42.710;27.258;2023-05-14T03:28:46;100899.06;;;7.74;100.00
12349;BME280;5974;42.710;27.258;2023-05-14T03:31:12;100899.56;;;7.96;100.00
12349;BME280;5974;42.710;27.258;2023-05-14T03:33:39;100892.38;;;8.08;100.00
12349;BME280;5974;42.710;27.258;2023-05-14T03:36:06;100882.66;;;8.18;100.00
12349;BME280;5974;42.710;27.258;2023-05-14T03:38:33;100878.34;;;8.17;100.00
12349;BME280;5974;42.710;27.258;2023-05-14T03:41:01;100866.84;;;8.30;100.00
12349;BME280;5974;42.710;27.258;2023-05-14T03:43:28;100864.81;;;8.44;100.00
12349;BME280;5974;42.710;27.258;2023-05-14T03:45:55;100870.56;;;8.60;100.00
12349;BME280;5974;42.710;27.258;2023-05-14T03:48:22;100872.66;;;8.84;100.00
12349;BME280;5974;42.710;27.258;2023-05-14T03:50:49;100871.44;;;9.00;100.00
12349;BME280;5974;42.710;27.258;2023-05-14T03:53:16;100857.63;;;8.95;100.00
12349;BME280;5974;42.710;27.258;2023-05-14T03:55:43;100886.50;;;8.88;100.00
12349;BME280;5974;42.710;27.258;2023-05-14T03:58:12;100891.50;;;8.57;100.00
12349;BME280;5974;42.710;27.258;2023-05-14T04:00:39;100882.78;;;9.36;100.00
12349;BME280;5974;42.710;27.258;2023-05-14T04:03:07;100886.47;;;9.27;100.00
12349;BME280;5974;42.710;27.258;2023-05-14T04:05:34;100877.69;;;9.68;100.00
12349;BME280;5974;42.710;27.258;2023-05-14T04:08:01;100884.06;;;11.15;100.00
12349;BME280;5974;42.710;27.258;2023-05-14T04:10:29;100858.72;;;12.69;100.00
12349;BME280;5974;42.710;27.258;2023-05-14T04:12:56;100874.25;;;14.25;100.00
12349;BME280;5974;42.710;27.258;2023-05-14T04:15:25;100872.31;;;15.97;96.75
12349;BME280;5974;42.710;27.258;2023-05-14T04:17:51;100868.09;;;18.59;78.37
12349;BME280;5974;42.710;27.258;2023-05-14T04:20:18;100861.19;;;20.94;66.17
12349;BME280;5974;42.710;27.258;2023-05-14T04:22:45;100861.50;;;23.20;55.77
12349;BME280;5974;42.710;27.258;2023-05-14T04:25:12;100850.69;;;23.44;52.22
12349;BME280;5974;42.710;27.258;2023-05-14T04:27:39;100856.19;;;23.20;50.52
12349;BME280;5974;42.710;27.258;2023-05-14T04:30:07;100868.28;;;23.36;49.09
12349;BME280;5974;42.710;27.258;2023-05-14T04:32:35;100865.13;;;25.85;46.34
12349;BME280;5974;42.710;27.258;2023-05-14T04:35:03;100864.41;;;28.03;44.06
12349;BME280;5974;42.710;27.258;2023-05-14T04:37:30;100873.44;;;27.31;41.26
12349;BME280;5974;42.710;27.258;2023-05-14T04:39:57;100862.91;;;26.93;41.52
12349;BME280;5974;42.710;27.258;2023-05-14T04:42:24;100887.63;;;27.69;39.75
12349;BME280;5974;42.710;27.258;2023-05-14T04:44:51;100890.38;;;27.32;39.50
12349;BME280;5974;42.710;27.258;2023-05-14T04:47:18;100896.13;;;25.69;40.85
12349;BME280;5974;42.710;27.258;2023-05-14T04:49:47;100895.25;;;24.28;43.00
12349;BME280;5974;42.710;27.258;2023-05-14T04:52:14;100891.56;;;23.45;43.94
12349;BME280;5974;42.710;27.258;2023-05-14T04:54:41;100880.75;;;23.57;43.84
12349;BME280;5974;42.710;27.258;2023-05-14T04:57:07;100878.50;;;24.26;43.36
12349;BME280;5974;42.710;27.258;2023-05-14T04:59:35;100879.19;;;27.19;40.38
12349;BME280;5974;42.710;27.258;2023-05-14T05:02:02;100878.50;;;29.42;38.20
12349;BME280;5974;42.710;27.258;2023-05-14T05:04:29;100872.56;;;31.61;34.28
12349;BME280;5974;42.710;27.258;2023-05-14T05:06:57;100882.59;;;32.21;33.04
12349;BME280;5974;42.710;27.258;2023-05-14T05:09:24;100879.72;;;33.40;31.57
12349;BME280;5974;42.710;27.258;2023-05-14T05:11:51;100882.38;;;32.45;31.88
12349;BME280;5974;42.710;27.258;2023-05-14T05:14:18;100886.94;;;31.62;33.36
12349;BME280;5974;42.710;27.258;2023-05-14T05:16:45;100876.19;;;31.77;32.45
12349;BME280;5974;42.710;27.258;2023-05-14T05:19:12;100888.22;;;30.41;33.84
12349;BME280;5974;42.710;27.258;2023-05-14T05:21:39;100890.91;;;32.19;32.86
12349;BME280;5974;42.710;27.258;2023-05-14T05:24:07;100888.69;;;34.18;30.74
12349;BME280;5974;42.710;27.258;2023-05-14T05:26:34;100893.63;;;32.34;31.22
12349;BME280;5974;42.710;27.258;2023-05-14T05:29:01;100902.22;;;32.90;31.46
12349;BME280;5974;42.710;27.258;2023-05-14T05:31:28;100903.50;;;32.64;31.77
12349;BME280;5974;42.710;27.258;2023-05-14T05:33:56;100907.41;;;33.35;31.03
12349;BME280;5974;42.710;27.258;2023-05-14T05:36:23;100910.66;;;37.18;27.90
12349;BME280;5974;42.710;27.258;2023-05-14T05:38:50;100909.25;;;34.06;29.19
12349;BME280;5974;42.710;27.258;2023-05-14T05:41:18;100918.06;;;30.16;31.69
12349;BME280;5974;42.710;27.258;2023-05-14T05:43:45;100902.81;;;29.50;32.63
12349;BME280;5974;42.710;27.258;2023-05-14T05:46:11;100912.47;;;28.85;35.55
12349;BME280;5974;42.710;27.258;2023-05-14T05:48:38;100900.72;;;31.05;33.70
12349;BME280;5974;42.710;27.258;2023-05-14T05:51:05;100903.91;;;29.97;34.64
12349;BME280;5974;42.710;27.258;2023-05-14T05:53:32;100904.13;;;30.99;34.34
12349;BME280;5974;42.710;27.258;2023-05-14T05:55:59;100897.63;;;31.25;35.04
12349;BME280;5974;42.710;27.258;2023-05-14T05:58:27;100896.34;;;29.93;35.17
12349;BME280;5974;42.710;27.258;2023-05-14T06:00:54;100896.78;;;30.37;35.56
12349;BME280;5974;42.710;27.258;2023-05-14T06:03:22;100898.78;;;30.67;35.15
12349;BME280;5974;42.710;27.258;2023-05-14T06:05:48;100893.59;;;29.77;35.57
12349;BME280;5974;42.710;27.258;2023-05-14T06:08:17;100894.63;;;27.79;38.67
12349;BME280;5974;42.710;27.258;2023-05-14T06:10:44;100892.34;;;26.29;40.71
12349;BME280;5974;42.710;27.258;2023-05-14T06:13:11;100895.59;;;26.23;41.95
12349;BME280;5974;42.710;27.258;2023-05-14T06:15:39;100888.34;;;24.76;43.96
12349;BME280;5974;42.710;27.258;2023-05-14T06:18:06;100840.22;;;24.05;44.66
12349;BME280;5974;42.710;27.258;2023-05-14T06:20:33;100896.75;;;23.68;47.39
12349;BME280;5974;42.710;27.258;2023-05-14T06:23:00;100905.31;;;23.18;48.21
12349;BME280;5974;42.710;27.258;2023-05-14T06:25:27;100904.97;;;22.78;48.36
12349;BME280;5974;42.710;27.258;2023-05-14T06:27:53;100907.75;;;21.72;49.43
12349;BME280;5974;42.710;27.258;2023-05-14T06:30:20;100899.47;;;21.53;51.01
12349;BME280;5974;42.710;27.258;2023-05-14T06:32:48;100903.94;;;21.52;50.75
12349;BME280;5974;42.710;27.258;2023-05-14T06:35:16;100906.63;;;21.87;51.09
12349;BME280;5974;42.710;27.258;2023-05-14T06:37:43;100911.88;;;23.03;50.13
12349;BME280;5974;42.710;27.258;2023-05-14T06:40:10;100915.28;;;25.55;46.99
12349;BME280;5974;42.710;27.258;2023-05-14T06:42:40;100905.88;;;25.20;46.02
12349;BME280;5974;42.710;27.258;2023-05-14T06:45:07;100905.56;;;25.63;46.36
12349;BME280;5974;42.710;27.258;2023-05-14T06:47:34;100934.50;;;27.84;43.09
12349;BME280;5974;42.710;27.258;2023-05-14T06:50:02;100943.34;;;28.29;42.63
12349;BME280;5974;42.710;27.258;2023-05-14T06:52:29;100950.22;;;28.49;41.64
12349;BME280;5974;42.710;27.258;2023-05-14T06:54:56;100952.13;;;28.14;41.69
12349;BME280;5974;42.710;27.258;2023-05-14T06:57:23;100955.44;;;29.78;39.29
12349;BME280;5974;42.710;27.258;2023-05-14T06:59:49;100951.28;;;29.34;40.21
12349;BME280;5974;42.710;27.258;2023-05-14T07:02:16;100953.94;;;29.00;39.64
12349;BME280;5974;42.710;27.258;2023-05-14T07:04:43;100955.31;;;27.99;41.05
12349;BME280;5974;42.710;27.258;2023-05-14T07:07:12;100961.75;;;26.13;43.29
12349;BME280;5974;42.710;27.258;2023-05-14T07:09:42;100943.25;;;26.58;44.29
12349;BME280;5974;42.710;27.258;2023-05-14T07:12:09;100929.03;;;25.90;45.14
12349;BME280;5974;42.710;27.258;2023-05-14T07:14:36;100920.84;;;26.01;46.47
12349;BME280;5974;42.710;27.258;2023-05-14T07:17:03;100924.97;;;26.71;44.46
12349;BME280;5974;42.710;27.258;2023-05-14T07:19:30;100921.38;;;25.66;45.36
12349;BME280;5974;42.710;27.258;2023-05-14T07:21:57;100927.63;;;26.05;46.48
12349;BME280;5974;42.710;27.258;2023-05-14T07:24:25;100924.78;;;26.55;45.43
12349;BME280;5974;42.710;27.258;2023-05-14T07:26:52;100915.59;;;26.00;46.28
12349;BME280;5974;42.710;27.258;2023-05-14T07:29:19;100917.09;;;26.69;46.00
12349;BME280;5974;42.710;27.258;2023-05-14T07:31:46;100918.72;;;26.33;45.69
12349;BME280;5974;42.710;27.258;2023-05-14T07:34:13;100919.53;;;26.44;46.54
12349;BME280;5974;42.710;27.258;2023-05-14T07:36:40;100921.22;;;26.54;44.18
12349;BME280;5974;42.710;27.258;2023-05-14T07:39:07;100924.19;;;27.34;42.76
12349;BME280;5974;42.710;27.258;2023-05-14T07:41:35;100920.56;;;26.89;44.13
12349;BME280;5974;42.710;27.258;2023-05-14T07:44:02;100925.06;;;26.52;44.99
12349;BME280;5974;42.710;27.258;2023-05-14T07:46:29;100911.75;;;25.05;46.28
12349;BME280;5974;42.710;27.258;2023-05-14T07:48:56;100916.34;;;24.93;45.70
12349;BME280;5974;42.710;27.258;2023-05-14T07:51:23;100907.69;;;24.59;47.92
12349;BME280;5974;42.710;27.258;2023-05-14T07:53:52;100903.69;;;23.92;49.00
12349;BME280;5974;42.710;27.258;2023-05-14T07:56:19;100904.47;;;24.35;49.07
12349;BME280;5974;42.710;27.258;2023-05-14T07:58:48;100927.19;;;23.77;48.32
12349;BME280;5974;42.710;27.258;2023-05-14T08:01:15;100930.19;;;24.15;49.63
12349;BME280;5974;42.710;27.258;2023-05-14T08:03:42;100945.56;;;23.37;46.90
12349;BME280;5974;42.710;27.258;2023-05-14T08:06:10;100937.31;;;23.62;48.19
12349;BME280;5974;42.710;27.258;2023-05-14T08:08:37;100938.69;;;22.79;49.79
12349;BME280;5974;42.710;27.258;2023-05-14T08:11:04;100940.97;;;22.73;50.81
12349;BME280;5974;42.710;27.258;2023-05-14T08:13:31;100938.88;;;22.65;50.34
12349;BME280;5974;42.710;27.258;2023-05-14T08:15:59;100954.47;;;22.58;47.87
12349;BME280;5974;42.710;27.258;2023-05-14T08:18:26;100948.88;;;22.04;50.55
12349;BME280;5974;42.710;27.258;2023-05-14T08:20:53;100952.38;;;22.40;49.86
12349;BME280;5974;42.710;27.258;2023-05-14T08:23:20;100941.59;;;22.41;49.45
12349;BME280;5974;42.710;27.258;2023-05-14T08:25:47;100925.00;;;22.03;51.61
12349;BME280;5974;42.710;27.258;2023-05-14T08:28:14;100932.53;;;21.61;49.76
12349;BME280;5974;42.710;27.258;2023-05-14T08:30:40;100932.88;;;22.04;49.11
12349;BME280;5974;42.710;27.258;2023-05-14T08:33:09;100930.25;;;22.15;48.10
12349;BME280;5974;42.710;27.258;2023-05-14T08:35:35;100933.66;;;21.70;44.54
12349;BME280;5974;42.710;27.258;2023-05-14T08:38:02;100927.31;;;22.07;48.77
12349;BME280;5974;42.710;27.258;2023-05-14T08:40:29;100939.28;;;22.37;47.56
12349;BME280;5974;42.710;27.258;2023-05-14T08:42:56;100934.53;;;22.75;46.89
12349;BME280;5974;42.710;27.258;2023-05-14T08:45:28;100922.25;;;22.15;46.64
12349;BME280;5974;42.710;27.258;2023-05-14T08:47:58;100929.09;;;22.31;46.78
12349;BME280;5974;42.710;27.258;2023-05-14T08:50:27;100929.69;;;22.34;46.09
12349;BME280;5974;42.710;27.258;2023-05-14T08:52:55;100920.22;;;22.65;44.89
12349;BME280;5974;42.710;27.258;2023-05-14T08:55:22;100904.53;;;22.03;46.54
12349;BME280;5974;42.710;27.258;2023-05-14T08:57:50;100918.13;;;21.64;45.58
12349;BME280;5974;42.710;27.258;2023-05-14T09:00:17;100930.75;;;21.49;46.10
12349;BME280;5974;42.710;27.258;2023-05-14T09:02:45;100914.88;;;21.24;46.72
12349;BME280;5974;42.710;27.258;2023-05-14T09:05:13;100910.09;;;21.77;45.24
12349;BME280;5974;42.710;27.258;2023-05-14T09:07:44;100898.78;;;21.62;43.26
12349;BME280;5974;42.710;27.258;2023-05-14T09:10:11;100915.75;;;21.48;44.19
12349;BME280;5974;42.710;27.258;2023-05-14T09:12:37;100900.72;;;21.47;45.83
12349;BME280;5974;42.710;27.258;2023-05-14T09:15:05;100903.22;;;20.76;47.26
12349;BME280;5974;42.710;27.258;2023-05-14T09:17:33;100914.38;;;20.94;46.48
12349;BME280;5974;42.710;27.258;2023-05-14T09:20:00;100907.16;;;20.33;49.17
12349;BME280;5974;42.710;27.258;2023-05-14T09:22:28;100897.91;;;21.61;49.02
12349;BME280;5974;42.710;27.258;2023-05-14T09:25:06;100911.97;;;22.11;46.67
12349;BME280;5974;42.710;27.258;2023-05-14T09:27:34;100909.09;;;21.90;46.27
12349;BME280;5974;42.710;27.258;2023-05-14T09:30:06;100928.22;;;21.72;44.35
12349;BME280;5974;42.710;27.258;2023-05-14T09:32:38;100927.25;;;21.49;45.55
12349;BME280;5974;42.710;27.258;2023-05-14T09:35:13;100928.59;;;21.54;43.26
12349;BME280;5974;42.710;27.258;2023-05-14T09:37:42;100933.63;;;20.72;45.64
12349;BME280;5974;42.710;27.258;2023-05-14T09:40:12;100937.44;;;21.19;45.55
12349;BME280;5974;42.710;27.258;2023-05-14T09:42:39;100933.50;;;20.61;44.37
12349;BME280;5974;42.710;27.258;2023-05-14T09:45:07;100936.38;;;20.58;43.95
12349;BME280;5974;42.710;27.258;2023-05-14T09:47:34;100935.00;;;20.90;45.44
12349;BME280;5974;42.710;27.258;2023-05-14T09:50:01;100940.75;;;21.58;45.36
12349;BME280;5974;42.710;27.258;2023-05-14T09:52:28;100940.50;;;21.61;47.18
12349;BME280;5974;42.710;27.258;2023-05-14T09:54:55;100935.41;;;21.35;46.55
12349;BME280;5974;42.710;27.258;2023-05-14T09:57:23;100934.03;;;21.04;43.87
12349;BME280;5974;42.710;27.258;2023-05-14T09:59:51;100912.56;;;20.31;44.33
12349;BME280;5974;42.710;27.258;2023-05-14T10:02:22;100932.34;;;20.90;45.12
12349;BME280;5974;42.710;27.258;2023-05-14T10:04:50;100949.69;;;21.81;44.29
12349;BME280;5974;42.710;27.258;2023-05-14T10:07:21;100920.03;;;21.75;43.02
12349;BME280;5974;42.710;27.258;2023-05-14T10:09:53;100922.97;;;20.97;45.02
12349;BME280;5974;42.710;27.258;2023-05-14T10:12:28;100911.50;;;21.46;42.19
12349;BME280;5974;42.710;27.258;2023-05-14T10:15:00;100920.28;;;21.59;45.94
12349;BME280;5974;42.710;27.258;2023-05-14T10:17:30;100924.28;;;20.79;43.29
12349;BME280;5974;42.710;27.258;2023-05-14T10:19:58;100919.91;;;20.53;45.63
12349;BME280;5974;42.710;27.258;2023-05-14T10:22:33;100913.22;;;20.47;45.16
12349;BME280;5974;42.710;27.258;2023-05-14T10:25:01;100869.72;;;20.23;45.45
12349;BME280;5974;42.710;27.258;2023-05-14T10:27:30;100912.69;;;20.30;45.87
12349;BME280;5974;42.710;27.258;2023-05-14T10:29:57;100916.75;;;20.21;45.97
12349;BME280;5974;42.710;27.258;2023-05-14T10:32:25;100910.53;;;20.35;48.19
12349;BME280;5974;42.710;27.258;2023-05-14T10:34:52;100929.00;;;20.24;47.01
12349;BME280;5974;42.710;27.258;2023-05-14T10:37:21;100914.75;;;20.25;47.61
12349;BME280;5974;42.710;27.258;2023-05-14T10:39:50;100911.59;;;20.32;48.28
12349;BME280;5974;42.710;27.258;2023-05-14T10:42:19;100912.78;;;20.91;46.89
12349;BME280;5974;42.710;27.258;2023-05-14T10:44:50;100905.13;;;21.12;46.67
12349;BME280;5974;42.710;27.258;2023-05-14T10:47:17;100898.66;;;20.66;47.32
12349;BME280;5974;42.710;27.258;2023-05-14T10:49:45;100905.59;;;21.04;47.30
12349;BME280;5974;42.710;27.258;2023-05-14T10:52:16;100896.78;;;21.17;44.93
12349;BME280;5974;42.710;27.258;2023-05-14T10:54:55;100826.78;;;20.67;41.95
12349;BME280;5974;42.710;27.258;2023-05-14T10:57:23;100892.75;;;20.98;43.77
12349;BME280;5974;42.710;27.258;2023-05-14T10:59:53;100899.50;;;20.91;44.05
12349;BME280;5974;42.710;27.258;2023-05-14T11:02:22;100897.69;;;21.41;43.10
12349;BME280;5974;42.710;27.258;2023-05-14T11:04:54;100892.59;;;21.61;42.63
12349;BME280;5974;42.710;27.258;2023-05-14T11:07:23;100884.94;;;22.04;42.97
12349;BME280;5974;42.710;27.258;2023-05-14T11:09:50;100879.81;;;22.36;42.58
12349;BME280;5974;42.710;27.258;2023-05-14T11:12:18;100878.25;;;22.56;42.89
12349;BME280;5974;42.710;27.258;2023-05-14T11:14:47;100876.06;;;22.39;43.16
12349;BME280;5974;42.710;27.258;2023-05-14T11:17:15;100856.06;;;22.33;39.79
12349;BME280;5974;42.710;27.258;2023-05-14T11:19:42;100852.59;;;21.98;41.39
12349;BME280;5974;42.710;27.258;2023-05-14T11:22:10;100852.50;;;22.22;42.69
12349;BME280;5974;42.710;27.258;2023-05-14T11:24:39;100835.84;;;22.64;42.13
12349;BME280;5974;42.710;27.258;2023-05-14T11:27:06;100847.41;;;22.07;41.57
12349;BME280;5974;42.710;27.258;2023-05-14T11:29:34;100841.94;;;22.88;41.23
12349;BME280;5974;42.710;27.258;2023-05-14T11:32:03;100839.16;;;22.79;40.75
12349;BME280;5974;42.710;27.258;2023-05-14T11:34:32;100825.44;;;23.37;40.16
12349;BME280;5974;42.710;27.258;2023-05-14T11:37:02;100808.88;;;23.65;40.23
12349;BME280;5974;42.710;27.258;2023-05-14T11:39:29;100806.75;;;22.50;37.06
12349;BME280;5974;42.710;27.258;2023-05-14T11:41:57;100801.69;;;22.91;37.00
12349;BME280;5974;42.710;27.258;2023-05-14T11:44:24;100798.78;;;22.61;39.25
12349;BME280;5974;42.710;27.258;2023-05-14T11:46:55;100793.44;;;22.61;38.71
12349;BME280;5974;42.710;27.258;2023-05-14T11:49:22;100792.69;;;22.59;39.83
12349;BME280;5974;42.710;27.258;2023-05-14T11:51:56;100793.03;;;23.10;41.43
12349;BME280;5974;42.710;27.258;2023-05-14T11:54:24;100798.06;;;23.24;38.74
12349;BME280;5974;42.710;27.258;2023-05-14T11:56:51;100793.53;;;23.04;38.33
12349;BME280;5974;42.710;27.258;2023-05-14T11:59:19;100787.09;;;22.06;40.70
12349;BME280;5974;42.710;27.258;2023-05-14T12:01:47;100791.28;;;21.87;41.12
12349;BME280;5974;42.710;27.258;2023-05-14T12:04:14;100774.03;;;22.37;42.29
12349;BME280;5974;42.710;27.258;2023-05-14T12:06:43;100765.09;;;22.27;40.52
12349;BME280;5974;42.710;27.258;2023-05-14T12:09:15;100757.13;;;21.81;40.08
12349;BME280;5974;42.710;27.258;2023-05-14T12:11:42;100740.72;;;22.09;39.90
12349;BME280;5974;42.710;27.258;2023-05-14T12:14:10;100730.19;;;22.07;41.10
12349;BME280;5974;42.710;27.258;2023-05-14T12:16:39;100729.47;;;21.94;40.77
12349;BME280;5974;42.710;27.258;2023-05-14T12:19:08;100741.47;;;22.33;42.14
12349;BME280;5974;42.710;27.258;2023-05-14T12:21:35;100754.91;;;22.54;44.61
12349;BME280;5974;42.710;27.258;2023-05-14T12:24:03;100745.72;;;22.36;44.81
12349;BME280;5974;42.710;27.258;2023-05-14T12:26:33;100755.25;;;22.16;44.31
12349;BME280;5974;42.710;27.258;2023-05-14T12:29:01;100745.34;;;22.07;45.08
12349;BME280;5974;42.710;27.258;2023-05-14T12:31:28;100732.13;;;21.94;45.93
12349;BME280;5974;42.710;27.258;2023-05-14T12:33:55;100748.63;;;22.10;47.16
12349;BME280;5974;42.710;27.258;2023-05-14T12:36:22;100745.44;;;22.61;46.53
12349;BME280;5974;42.710;27.258;2023-05-14T12:38:49;100746.53;;;22.58;46.64
12349;BME280;5974;42.710;27.258;2023-05-14T12:41:16;100730.81;;;22.66;46.16
12349;BME280;5974;42.710;27.258;2023-05-14T12:43:46;100727.66;;;22.39;45.92
12349;BME280;5974;42.710;27.258;2023-05-14T12:46:14;100730.19;;;22.19;45.81
12349;BME280;5974;42.710;27.258;2023-05-14T12:48:41;100723.34;;;21.81;46.54
12349;BME280;5974;42.710;27.258;2023-05-14T12:51:07;100720.44;;;21.73;47.51
12349;BME280;5974;42.710;27.258;2023-05-14T12:53:34;100719.34;;;21.76;48.11